sensor_id;sensor_type;location;lat;lon;timestamp;P1;durP1;ratioP1;P2;durP2;ratioP2
21941;SDS011;11135;54.192;15.670;2022-10-31T00:01:32;71.55;;;25.52;;
21941;SDS011;11135;54.192;15.670;2022-10-31T00:04:41;54.50;;;22.17;;
21941;SDS011;11135;54.192;15.670;2022-10-31T00:07:46;36.85;;;19.67;;
21941;SDS011;11135;54.192;15.670;2022-10-31T00:10:51;94.97;;;28.92;;
21941;SDS011;11135;54.192;15.670;2022-10-31T00:13:57;91.65;;;27.17;;
21941;SDS011;11135;54.192;15.670;2022-10-31T00:17:03;174.35;;;31.60;;
21941;SDS011;11135;54.192;15.670;2022-10-31T00:20:13;75.03;;;21.05;;
21941;SDS011;11135;54.192;15.670;2022-10-31T00:23:21;155.20;;;31.23;;
21941;SDS011;11135;54.192;15.670;2022-10-31T00:26:28;107.10;;;27.00;;
21941;SDS011;11135;54.192;15.670;2022-10-31T00:29:38;123.40;;;26.63;;
21941;SDS011;11135;54.192;15.670;2022-10-31T00:32:44;127.00;;;27.48;;
21941;SDS011;11135;54.192;15.670;2022-10-31T00:36:10;101.40;;;22.30;;
21941;SDS011;11135;54.192;15.670;2022-10-31T00:39:19;73.95;;;21.92;;
21941;SDS011;11135;54.192;15.670;2022-10-31T00:42:24;74.35;;;21.90;;
21941;SDS011;11135;54.192;15.670;2022-10-31T00:45:42;195.48;;;33.03;;
21941;SDS011;11135;54.192;15.670;2022-10-31T00:48:51;76.05;;;21.20;;
21941;SDS011;11135;54.192;15.670;2022-10-31T00:51:59;115.82;;;23.10;;
21941;SDS011;11135;54.192;15.670;2022-10-31T00:55:12;130.80;;;29.77;;
21941;SDS011;11135;54.192;15.670;2022-10-31T00:58:38;112.28;;;25.80;;
21941;SDS011;11135;54.192;15.670;2022-10-31T01:01:57;122.43;;;24.15;;
21941;SDS011;11135;54.192;15.670;2022-10-31T01:05:06;92.95;;;22.58;;
21941;SDS011;11135;54.192;15.670;2022-10-31T01:11:50;137.77;;;29.90;;
21941;SDS011;11135;54.192;15.670;2022-10-31T01:15:00;151.05;;;25.25;;
21941;SDS011;11135;54.192;15.670;2022-10-31T01:18:09;70.43;;;20.67;;
21941;SDS011;11135;54.192;15.670;2022-10-31T01:21:19;76.70;;;21.85;;
21941;SDS011;11135;54.192;15.670;2022-10-31T01:24:29;67.13;;;20.42;;
21941;SDS011;11135;54.192;15.670;2022-10-31T01:31:07;89.47;;;20.45;;
21941;SDS011;11135;54.192;15.670;2022-10-31T01:34:15;225.38;;;32.08;;
21941;SDS011;11135;54.192;15.670;2022-10-31T01:37:21;363.38;;;43.60;;
21941;SDS011;11135;54.192;15.670;2022-10-31T01:40:28;214.00;;;30.27;;
21941;SDS011;11135;54.192;15.670;2022-10-31T01:43:46;155.88;;;27.25;;
21941;SDS011;11135;54.192;15.670;2022-10-31T01:50:23;190.88;;;31.48;;
21941;SDS011;11135;54.192;15.670;2022-10-31T01:53:34;230.90;;;33.13;;
21941;SDS011;11135;54.192;15.670;2022-10-31T01:56:46;210.68;;;31.83;;
21941;SDS011;11135;54.192;15.670;2022-10-31T01:59:55;300.30;;;36.95;;
21941;SDS011;11135;54.192;15.670;2022-10-31T02:03:13;124.53;;;22.95;;
21941;SDS011;11135;54.192;15.670;2022-10-31T02:06:26;261.38;;;36.13;;
21941;SDS011;11135;54.192;15.670;2022-10-31T02:09:33;295.50;;;39.75;;
21941;SDS011;11135;54.192;15.670;2022-10-31T02:12:39;126.38;;;25.27;;
21941;SDS011;11135;54.192;15.670;2022-10-31T02:15:49;351.60;;;40.55;;
21941;SDS011;11135;54.192;15.670;2022-10-31T02:19:03;69.47;;;18.27;;
21941;SDS011;11135;54.192;15.670;2022-10-31T02:22:15;128.50;;;22.73;;
21941;SDS011;11135;54.192;15.670;2022-10-31T02:25:30;133.80;;;22.20;;
21941;SDS011;11135;54.192;15.670;2022-10-31T02:29:12;113.65;;;21.40;;
21941;SDS011;11135;54.192;15.670;2022-10-31T02:32:29;120.15;;;24.38;;
21941;SDS011;11135;54.192;15.670;2022-10-31T02:35:41;115.00;;;23.27;;
21941;SDS011;11135;54.192;15.670;2022-10-31T02:38:53;84.50;;;20.98;;
21941;SDS011;11135;54.192;15.670;2022-10-31T02:42:03;98.35;;;21.27;;
21941;SDS011;11135;54.192;15.670;2022-10-31T02:45:19;87.30;;;22.08;;
21941;SDS011;11135;54.192;15.670;2022-10-31T02:48:31;70.72;;;18.00;;
21941;SDS011;11135;54.192;15.670;2022-10-31T02:51:39;90.78;;;19.73;;
21941;SDS011;11135;54.192;15.670;2022-10-31T02:54:45;79.03;;;19.48;;
21941;SDS011;11135;54.192;15.670;2022-10-31T02:57:56;183.35;;;30.67;;
21941;SDS011;11135;54.192;15.670;2022-10-31T03:01:07;137.02;;;28.15;;
21941;SDS011;11135;54.192;15.670;2022-10-31T03:04:20;93.72;;;25.05;;
21941;SDS011;11135;54.192;15.670;2022-10-31T03:07:38;79.78;;;21.77;;
21941;SDS011;11135;54.192;15.670;2022-10-31T03:10:51;149.43;;;24.90;;
21941;SDS011;11135;54.192;15.670;2022-10-31T03:13:59;175.10;;;28.90;;
21941;SDS011;11135;54.192;15.670;2022-10-31T03:17:09;237.20;;;34.95;;
21941;SDS011;11135;54.192;15.670;2022-10-31T03:20:36;168.85;;;31.33;;
21941;SDS011;11135;54.192;15.670;2022-10-31T03:23:43;223.18;;;30.15;;
21941;SDS011;11135;54.192;15.670;2022-10-31T03:26:55;98.32;;;22.58;;
21941;SDS011;11135;54.192;15.670;2022-10-31T03:30:03;70.28;;;20.33;;
21941;SDS011;11135;54.192;15.670;2022-10-31T03:33:13;134.65;;;24.70;;
21941;SDS011;11135;54.192;15.670;2022-10-31T03:36:23;201.02;;;29.92;;
21941;SDS011;11135;54.192;15.670;2022-10-31T03:39:32;181.70;;;31.30;;
21941;SDS011;11135;54.192;15.670;2022-10-31T03:42:40;175.45;;;25.73;;
21941;SDS011;11135;54.192;15.670;2022-10-31T03:45:49;202.25;;;26.98;;
21941;SDS011;11135;54.192;15.670;2022-10-31T03:48:57;149.13;;;24.73;;
21941;SDS011;11135;54.192;15.670;2022-10-31T03:52:26;151.35;;;28.52;;
21941;SDS011;11135;54.192;15.670;2022-10-31T03:55:39;104.25;;;23.83;;
21941;SDS011;11135;54.192;15.670;2022-10-31T03:58:55;166.63;;;29.13;;
21941;SDS011;11135;54.192;15.670;2022-10-31T04:02:05;148.85;;;24.38;;
21941;SDS011;11135;54.192;15.670;2022-10-31T04:05:39;217.57;;;29.35;;
21941;SDS011;11135;54.192;15.670;2022-10-31T04:08:52;246.20;;;29.73;;
21941;SDS011;11135;54.192;15.670;2022-10-31T04:12:20;191.85;;;28.75;;
21941;SDS011;11135;54.192;15.670;2022-10-31T04:15:33;136.60;;;25.38;;
21941;SDS011;11135;54.192;15.670;2022-10-31T04:19:03;158.02;;;24.33;;
21941;SDS011;11135;54.192;15.670;2022-10-31T04:26:09;154.68;;;23.80;;
21941;SDS011;11135;54.192;15.670;2022-10-31T04:29:54;188.48;;;30.30;;
21941;SDS011;11135;54.192;15.670;2022-10-31T04:33:15;159.48;;;27.38;;
21941;SDS011;11135;54.192;15.670;2022-10-31T04:36:56;119.20;;;23.20;;
21941;SDS011;11135;54.192;15.670;2022-10-31T04:40:32;212.07;;;36.33;;
21941;SDS011;11135;54.192;15.670;2022-10-31T04:43:47;205.13;;;34.22;;
21941;SDS011;11135;54.192;15.670;2022-10-31T04:47:13;98.90;;;20.67;;
21941;SDS011;11135;54.192;15.670;2022-10-31T04:50:52;145.05;;;26.52;;
21941;SDS011;11135;54.192;15.670;2022-10-31T04:54:32;180.30;;;26.77;;
21941;SDS011;11135;54.192;15.670;2022-10-31T05:12:18;253.98;;;27.25;;
21941;SDS011;11135;54.192;15.670;2022-10-31T05:15:39;270.33;;;28.92;;
21941;SDS011;11135;54.192;15.670;2022-10-31T05:18:59;363.05;;;42.08;;
21941;SDS011;11135;54.192;15.670;2022-10-31T05:22:13;204.23;;;25.23;;
21941;SDS011;11135;54.192;15.670;2022-10-31T05:25:29;191.98;;;21.58;;
21941;SDS011;11135;54.192;15.670;2022-10-31T05:28:41;182.25;;;25.17;;
21941;SDS011;11135;54.192;15.670;2022-10-31T05:31:46;206.90;;;29.08;;
21941;SDS011;11135;54.192;15.670;2022-10-31T05:34:56;163.80;;;20.42;;
21941;SDS011;11135;54.192;15.670;2022-10-31T05:38:04;226.70;;;28.60;;
21941;SDS011;11135;54.192;15.670;2022-10-31T05:41:15;223.55;;;28.10;;
21941;SDS011;11135;54.192;15.670;2022-10-31T05:44:26;208.27;;;27.55;;
21941;SDS011;11135;54.192;15.670;2022-10-31T05:47:33;204.98;;;25.88;;
21941;SDS011;11135;54.192;15.670;2022-10-31T05:50:44;305.92;;;34.22;;
21941;SDS011;11135;54.192;15.670;2022-10-31T05:53:49;259.65;;;26.95;;
21941;SDS011;11135;54.192;15.670;2022-10-31T05:56:56;234.57;;;29.60;;
21941;SDS011;11135;54.192;15.670;2022-10-31T06:00:09;225.70;;;27.58;;
21941;SDS011;11135;54.192;15.670;2022-10-31T06:03:22;251.43;;;31.67;;
21941;SDS011;11135;54.192;15.670;2022-10-31T06:06:37;178.43;;;26.23;;
21941;SDS011;11135;54.192;15.670;2022-10-31T06:09:44;214.02;;;25.75;;
21941;SDS011;11135;54.192;15.670;2022-10-31T06:12:55;193.38;;;27.90;;
21941;SDS011;11135;54.192;15.670;2022-10-31T06:16:03;332.67;;;39.33;;
21941;SDS011;11135;54.192;15.670;2022-10-31T06:19:13;260.20;;;31.13;;
21941;SDS011;11135;54.192;15.670;2022-10-31T06:22:19;246.40;;;33.38;;
21941;SDS011;11135;54.192;15.670;2022-10-31T06:25:26;209.13;;;31.27;;
21941;SDS011;11135;54.192;15.670;2022-10-31T06:28:33;121.88;;;19.83;;
21941;SDS011;11135;54.192;15.670;2022-10-31T06:31:43;149.30;;;23.90;;
21941;SDS011;11135;54.192;15.670;2022-10-31T06:34:55;139.98;;;25.42;;
21941;SDS011;11135;54.192;15.670;2022-10-31T06:38:06;140.77;;;24.35;;
21941;SDS011;11135;54.192;15.670;2022-10-31T06:41:13;186.13;;;30.58;;
21941;SDS011;11135;54.192;15.670;2022-10-31T06:44:20;158.88;;;25.85;;
21941;SDS011;11135;54.192;15.670;2022-10-31T06:47:28;214.27;;;27.92;;
21941;SDS011;11135;54.192;15.670;2022-10-31T06:50:59;124.97;;;22.83;;
21941;SDS011;11135;54.192;15.670;2022-10-31T06:54:15;162.30;;;25.90;;
21941;SDS011;11135;54.192;15.670;2022-10-31T06:57:29;160.32;;;25.88;;
21941;SDS011;11135;54.192;15.670;2022-10-31T07:00:35;111.72;;;23.80;;
21941;SDS011;11135;54.192;15.670;2022-10-31T07:03:47;113.57;;;21.70;;
21941;SDS011;11135;54.192;15.670;2022-10-31T07:06:52;142.98;;;24.25;;
21941;SDS011;11135;54.192;15.670;2022-10-31T07:09:59;132.13;;;25.42;;
21941;SDS011;11135;54.192;15.670;2022-10-31T07:13:09;168.40;;;29.50;;
21941;SDS011;11135;54.192;15.670;2022-10-31T07:16:16;120.07;;;26.13;;
21941;SDS011;11135;54.192;15.670;2022-10-31T07:19:24;240.70;;;32.53;;
21941;SDS011;11135;54.192;15.670;2022-10-31T07:22:36;93.97;;;24.83;;
21941;SDS011;11135;54.192;15.670;2022-10-31T07:25:42;119.10;;;24.10;;
21941;SDS011;11135;54.192;15.670;2022-10-31T07:28:53;83.30;;;20.52;;
21941;SDS011;11135;54.192;15.670;2022-10-31T07:32:01;100.05;;;25.90;;
21941;SDS011;11135;54.192;15.670;2022-10-31T07:35:22;127.55;;;24.17;;
21941;SDS011;11135;54.192;15.670;2022-10-31T07:38:43;131.18;;;27.27;;
21941;SDS011;11135;54.192;15.670;2022-10-31T07:41:51;214.85;;;30.00;;
21941;SDS011;11135;54.192;15.670;2022-10-31T07:45:00;111.53;;;23.60;;
21941;SDS011;11135;54.192;15.670;2022-10-31T07:48:05;182.30;;;29.40;;
21941;SDS011;11135;54.192;15.670;2022-10-31T07:51:42;97.78;;;22.48;;
21941;SDS011;11135;54.192;15.670;2022-10-31T07:55:12;138.32;;;25.92;;
21941;SDS011;11135;54.192;15.670;2022-10-31T07:58:47;168.75;;;26.80;;
21941;SDS011;11135;54.192;15.670;2022-10-31T08:01:59;161.55;;;31.10;;
21941;SDS011;11135;54.192;15.670;2022-10-31T08:05:29;91.35;;;25.48;;
21941;SDS011;11135;54.192;15.670;2022-10-31T08:08:37;118.57;;;24.83;;
21941;SDS011;11135;54.192;15.670;2022-10-31T08:11:46;170.02;;;30.58;;
21941;SDS011;11135;54.192;15.670;2022-10-31T08:14:59;73.97;;;23.20;;
21941;SDS011;11135;54.192;15.670;2022-10-31T08:18:05;127.47;;;26.92;;
21941;SDS011;11135;54.192;15.670;2022-10-31T08:21:18;156.02;;;32.58;;
21941;SDS011;11135;54.192;15.670;2022-10-31T08:24:29;71.43;;;20.33;;
21941;SDS011;11135;54.192;15.670;2022-10-31T08:27:39;165.48;;;31.38;;
21941;SDS011;11135;54.192;15.670;2022-10-31T08:30:45;122.45;;;26.33;;
21941;SDS011;11135;54.192;15.670;2022-10-31T08:33:52;194.73;;;36.30;;
21941;SDS011;11135;54.192;15.670;2022-10-31T08:37:01;159.55;;;32.60;;
21941;SDS011;11135;54.192;15.670;2022-10-31T08:40:19;162.90;;;30.85;;
21941;SDS011;11135;54.192;15.670;2022-10-31T08:43:27;99.90;;;27.10;;
21941;SDS011;11135;54.192;15.670;2022-10-31T08:46:34;314.73;;;43.80;;
21941;SDS011;11135;54.192;15.670;2022-10-31T08:52:59;93.03;;;24.83;;
21941;SDS011;11135;54.192;15.670;2022-10-31T08:56:17;204.43;;;30.05;;
21941;SDS011;11135;54.192;15.670;2022-10-31T08:59:26;133.25;;;29.63;;
21941;SDS011;11135;54.192;15.670;2022-10-31T09:02:37;150.52;;;30.45;;
21941;SDS011;11135;54.192;15.670;2022-10-31T09:05:45;121.57;;;29.02;;
21941;SDS011;11135;54.192;15.670;2022-10-31T09:08:53;73.50;;;23.45;;
21941;SDS011;11135;54.192;15.670;2022-10-31T09:12:04;105.50;;;27.88;;
21941;SDS011;11135;54.192;15.670;2022-10-31T09:15:10;153.30;;;28.52;;
21941;SDS011;11135;54.192;15.670;2022-10-31T09:18:18;154.00;;;33.65;;
21941;SDS011;11135;54.192;15.670;2022-10-31T09:21:28;64.70;;;24.60;;
21941;SDS011;11135;54.192;15.670;2022-10-31T09:24:43;178.77;;;30.58;;
21941;SDS011;11135;54.192;15.670;2022-10-31T09:27:54;94.75;;;30.98;;
21941;SDS011;11135;54.192;15.670;2022-10-31T09:31:00;113.20;;;28.02;;
21941;SDS011;11135;54.192;15.670;2022-10-31T09:34:06;102.20;;;28.35;;
21941;SDS011;11135;54.192;15.670;2022-10-31T09:37:12;142.70;;;34.42;;
21941;SDS011;11135;54.192;15.670;2022-10-31T09:40:19;90.05;;;25.80;;
21941;SDS011;11135;54.192;15.670;2022-10-31T09:43:31;68.72;;;26.75;;
21941;SDS011;11135;54.192;15.670;2022-10-31T09:46:42;180.93;;;37.30;;
21941;SDS011;11135;54.192;15.670;2022-10-31T09:49:55;110.43;;;30.95;;
21941;SDS011;11135;54.192;15.670;2022-10-31T09:53:04;111.63;;;29.90;;
21941;SDS011;11135;54.192;15.670;2022-10-31T09:56:11;96.75;;;30.13;;
21941;SDS011;11135;54.192;15.670;2022-10-31T09:59:27;107.03;;;29.13;;
21941;SDS011;11135;54.192;15.670;2022-10-31T10:02:39;57.58;;;25.00;;
21941;SDS011;11135;54.192;15.670;2022-10-31T10:05:46;85.88;;;25.52;;
21941;SDS011;11135;54.192;15.670;2022-10-31T10:09:00;103.30;;;24.20;;
21941;SDS011;11135;54.192;15.670;2022-10-31T10:15:32;85.18;;;22.85;;
21941;SDS011;11135;54.192;15.670;2022-10-31T10:18:54;153.43;;;30.83;;
21941;SDS011;11135;54.192;15.670;2022-10-31T10:22:11;75.50;;;22.48;;
21941;SDS011;11135;54.192;15.670;2022-10-31T10:25:19;77.45;;;22.95;;
21941;SDS011;11135;54.192;15.670;2022-10-31T10:28:27;78.93;;;23.33;;
21941;SDS011;11135;54.192;15.670;2022-10-31T10:31:39;112.90;;;25.33;;
21941;SDS011;11135;54.192;15.670;2022-10-31T10:34:49;67.70;;;23.30;;
21941;SDS011;11135;54.192;15.670;2022-10-31T10:38:00;114.07;;;27.37;;
21941;SDS011;11135;54.192;15.670;2022-10-31T10:41:10;116.70;;;24.65;;
21941;SDS011;11135;54.192;15.670;2022-10-31T10:44:18;52.17;;;21.87;;
21941;SDS011;11135;54.192;15.670;2022-10-31T10:47:29;85.72;;;23.13;;
21941;SDS011;11135;54.192;15.670;2022-10-31T10:50:47;36.17;;;11.88;;
21941;SDS011;11135;54.192;15.670;2022-10-31T10:53:58;31.50;;;10.20;;
21941;SDS011;11135;54.192;15.670;2022-10-31T10:57:15;30.70;;;9.93;;
21941;SDS011;11135;54.192;15.670;2022-10-31T11:00:30;34.30;;;11.95;;
21941;SDS011;11135;54.192;15.670;2022-10-31T11:03:40;34.65;;;10.98;;
21941;SDS011;11135;54.192;15.670;2022-10-31T11:06:56;26.52;;;10.85;;
21941;SDS011;11135;54.192;15.670;2022-10-31T11:10:06;32.45;;;12.23;;
21941;SDS011;11135;54.192;15.670;2022-10-31T11:13:20;39.05;;;12.00;;
21941;SDS011;11135;54.192;15.670;2022-10-31T11:16:35;38.20;;;10.57;;
21941;SDS011;11135;54.192;15.670;2022-10-31T11:19:46;25.00;;;9.80;;
21941;SDS011;11135;54.192;15.670;2022-10-31T11:23:00;30.60;;;11.05;;
21941;SDS011;11135;54.192;15.670;2022-10-31T11:26:14;35.38;;;11.75;;
21941;SDS011;11135;54.192;15.670;2022-10-31T11:29:26;34.35;;;10.90;;
21941;SDS011;11135;54.192;15.670;2022-10-31T11:32:34;31.05;;;11.20;;
21941;SDS011;11135;54.192;15.670;2022-10-31T11:35:43;29.60;;;10.70;;
21941;SDS011;11135;54.192;15.670;2022-10-31T11:38:54;24.27;;;10.30;;
21941;SDS011;11135;54.192;15.670;2022-10-31T11:42:02;21.63;;;9.73;;
21941;SDS011;11135;54.192;15.670;2022-10-31T11:45:14;32.30;;;12.05;;
21941;SDS011;11135;54.192;15.670;2022-10-31T11:48:21;26.23;;;10.35;;
21941;SDS011;11135;54.192;15.670;2022-10-31T11:51:34;27.67;;;9.80;;
21941;SDS011;11135;54.192;15.670;2022-10-31T11:54:41;33.67;;;9.23;;
21941;SDS011;11135;54.192;15.670;2022-10-31T11:57:53;46.38;;;11.18;;
21941;SDS011;11135;54.192;15.670;2022-10-31T12:01:05;38.08;;;10.57;;
21941;SDS011;11135;54.192;15.670;2022-10-31T12:04:14;23.30;;;8.27;;
21941;SDS011;11135;54.192;15.670;2022-10-31T12:07:26;18.98;;;8.43;;
21941;SDS011;11135;54.192;15.670;2022-10-31T12:10:35;30.45;;;8.85;;
21941;SDS011;11135;54.192;15.670;2022-10-31T12:13:49;31.05;;;9.07;;
21941;SDS011;11135;54.192;15.670;2022-10-31T12:17:09;42.50;;;10.07;;
21941;SDS011;11135;54.192;15.670;2022-10-31T12:20:23;43.92;;;10.10;;
21941;SDS011;11135;54.192;15.670;2022-10-31T12:23:42;38.95;;;10.13;;
21941;SDS011;11135;54.192;15.670;2022-10-31T12:26:53;39.38;;;9.48;;
21941;SDS011;11135;54.192;15.670;2022-10-31T12:30:13;43.97;;;9.32;;
21941;SDS011;11135;54.192;15.670;2022-10-31T12:33:25;42.47;;;9.27;;
21941;SDS011;11135;54.192;15.670;2022-10-31T12:36:37;47.35;;;8.25;;
21941;SDS011;11135;54.192;15.670;2022-10-31T12:39:51;74.90;;;9.65;;
21941;SDS011;11135;54.192;15.670;2022-10-31T12:43:04;36.35;;;7.97;;
21941;SDS011;11135;54.192;15.670;2022-10-31T12:46:16;30.92;;;7.60;;
21941;SDS011;11135;54.192;15.670;2022-10-31T12:52:36;29.52;;;7.80;;
21941;SDS011;11135;54.192;15.670;2022-10-31T12:58:55;39.33;;;8.32;;
21941;SDS011;11135;54.192;15.670;2022-10-31T13:02:04;28.10;;;7.47;;
21941;SDS011;11135;54.192;15.670;2022-10-31T13:05:17;25.45;;;8.77;;
21941;SDS011;11135;54.192;15.670;2022-10-31T13:08:25;29.75;;;8.07;;
21941;SDS011;11135;54.192;15.670;2022-10-31T13:11:34;25.83;;;7.80;;
21941;SDS011;11135;54.192;15.670;2022-10-31T13:14:44;22.65;;;5.97;;
21941;SDS011;11135;54.192;15.670;2022-10-31T13:17:53;25.75;;;6.35;;
21941;SDS011;11135;54.192;15.670;2022-10-31T13:21:01;15.50;;;6.13;;
21941;SDS011;11135;54.192;15.670;2022-10-31T13:24:12;18.33;;;5.95;;
21941;SDS011;11135;54.192;15.670;2022-10-31T13:27:20;13.35;;;4.90;;
21941;SDS011;11135;54.192;15.670;2022-10-31T13:30:37;17.38;;;5.97;;
21941;SDS011;11135;54.192;15.670;2022-10-31T13:33:46;19.25;;;5.85;;
21941;SDS011;11135;54.192;15.670;2022-10-31T13:36:57;41.60;;;7.47;;
21941;SDS011;11135;54.192;15.670;2022-10-31T13:40:13;32.60;;;8.23;;
21941;SDS011;11135;54.192;15.670;2022-10-31T13:43:28;23.25;;;8.00;;
21941;SDS011;11135;54.192;15.670;2022-10-31T13:46:41;26.88;;;8.77;;
21941;SDS011;11135;54.192;15.670;2022-10-31T13:49:48;16.92;;;7.72;;
21941;SDS011;11135;54.192;15.670;2022-10-31T13:53:03;29.00;;;8.80;;
21941;SDS011;11135;54.192;15.670;2022-10-31T13:56:17;28.67;;;9.23;;
21941;SDS011;11135;54.192;15.670;2022-10-31T13:59:26;25.77;;;8.98;;
21941;SDS011;11135;54.192;15.670;2022-10-31T14:02:37;19.88;;;7.68;;
21941;SDS011;11135;54.192;15.670;2022-10-31T14:05:51;28.10;;;8.25;;
21941;SDS011;11135;54.192;15.670;2022-10-31T14:09:01;28.58;;;8.02;;
21941;SDS011;11135;54.192;15.670;2022-10-31T14:12:24;28.77;;;8.63;;
21941;SDS011;11135;54.192;15.670;2022-10-31T14:15:32;21.33;;;8.07;;
21941;SDS011;11135;54.192;15.670;2022-10-31T14:18:41;38.90;;;9.98;;
21941;SDS011;11135;54.192;15.670;2022-10-31T14:21:57;25.67;;;8.70;;
21941;SDS011;11135;54.192;15.670;2022-10-31T14:25:24;20.10;;;8.73;;
21941;SDS011;11135;54.192;15.670;2022-10-31T14:28:31;37.22;;;10.15;;
21941;SDS011;11135;54.192;15.670;2022-10-31T14:31:37;37.42;;;11.32;;
21941;SDS011;11135;54.192;15.670;2022-10-31T14:34:53;31.90;;;10.80;;
21941;SDS011;11135;54.192;15.670;2022-10-31T14:38:03;25.67;;;8.48;;
21941;SDS011;11135;54.192;15.670;2022-10-31T14:44:47;26.73;;;8.90;;
21941;SDS011;11135;54.192;15.670;2022-10-31T14:47:58;22.23;;;8.27;;
21941;SDS011;11135;54.192;15.670;2022-10-31T14:51:13;12.38;;;6.70;;
21941;SDS011;11135;54.192;15.670;2022-10-31T14:54:23;18.77;;;8.27;;
21941;SDS011;11135;54.192;15.670;2022-10-31T14:57:33;13.88;;;6.93;;
21941;SDS011;11135;54.192;15.670;2022-10-31T15:00:41;12.55;;;5.72;;
21941;SDS011;11135;54.192;15.670;2022-10-31T15:03:52;12.40;;;5.65;;
21941;SDS011;11135;54.192;15.670;2022-10-31T15:07:23;8.20;;;5.45;;
21941;SDS011;11135;54.192;15.670;2022-10-31T15:10:29;14.63;;;7.03;;
21941;SDS011;11135;54.192;15.670;2022-10-31T15:13:41;10.85;;;5.50;;
21941;SDS011;11135;54.192;15.670;2022-10-31T15:16:47;7.72;;;5.15;;
21941;SDS011;11135;54.192;15.670;2022-10-31T15:19:54;8.00;;;4.95;;
21941;SDS011;11135;54.192;15.670;2022-10-31T15:23:05;11.95;;;5.70;;
21941;SDS011;11135;54.192;15.670;2022-10-31T15:26:13;14.48;;;6.55;;
21941;SDS011;11135;54.192;15.670;2022-10-31T15:29:25;12.10;;;6.22;;
21941;SDS011;11135;54.192;15.670;2022-10-31T15:32:32;17.23;;;6.47;;
21941;SDS011;11135;54.192;15.670;2022-10-31T15:35:55;11.52;;;6.03;;
21941;SDS011;11135;54.192;15.670;2022-10-31T15:39:08;10.43;;;5.85;;
21941;SDS011;11135;54.192;15.670;2022-10-31T15:42:18;11.50;;;6.13;;
21941;SDS011;11135;54.192;15.670;2022-10-31T15:45:25;11.15;;;5.40;;
21941;SDS011;11135;54.192;15.670;2022-10-31T15:48:32;14.40;;;6.78;;
21941;SDS011;11135;54.192;15.670;2022-10-31T15:51:39;21.52;;;7.80;;
21941;SDS011;11135;54.192;15.670;2022-10-31T15:54:48;16.98;;;6.53;;
21941;SDS011;11135;54.192;15.670;2022-10-31T15:57:57;11.82;;;6.10;;
21941;SDS011;11135;54.192;15.670;2022-10-31T16:01:04;10.10;;;4.43;;
21941;SDS011;11135;54.192;15.670;2022-10-31T16:04:19;9.45;;;3.83;;
21941;SDS011;11135;54.192;15.670;2022-10-31T16:07:26;10.57;;;4.22;;
21941;SDS011;11135;54.192;15.670;2022-10-31T16:10:37;11.10;;;4.72;;
21941;SDS011;11135;54.192;15.670;2022-10-31T16:13:51;12.55;;;4.13;;
21941;SDS011;11135;54.192;15.670;2022-10-31T16:16:57;7.57;;;4.20;;
21941;SDS011;11135;54.192;15.670;2022-10-31T16:20:04;8.05;;;3.90;;
21941;SDS011;11135;54.192;15.670;2022-10-31T16:23:12;11.77;;;4.57;;
21941;SDS011;11135;54.192;15.670;2022-10-31T16:26:23;6.47;;;3.22;;
21941;SDS011;11135;54.192;15.670;2022-10-31T16:29:32;9.23;;;3.70;;
21941;SDS011;11135;54.192;15.670;2022-10-31T16:32:51;7.82;;;3.47;;
21941;SDS011;11135;54.192;15.670;2022-10-31T16:35:59;7.25;;;3.60;;
21941;SDS011;11135;54.192;15.670;2022-10-31T16:39:32;10.45;;;3.85;;
21941;SDS011;11135;54.192;15.670;2022-10-31T16:42:40;7.85;;;4.05;;
21941;SDS011;11135;54.192;15.670;2022-10-31T16:45:46;11.18;;;4.47;;
21941;SDS011;11135;54.192;15.670;2022-10-31T16:48:54;9.55;;;4.55;;
21941;SDS011;11135;54.192;15.670;2022-10-31T16:52:02;10.75;;;4.20;;
21941;SDS011;11135;54.192;15.670;2022-10-31T16:55:10;11.73;;;4.75;;
21941;SDS011;11135;54.192;15.670;2022-10-31T16:58:20;13.57;;;4.80;;
21941;SDS011;11135;54.192;15.670;2022-10-31T17:01:27;11.13;;;5.10;;
21941;SDS011;11135;54.192;15.670;2022-10-31T17:04:33;9.55;;;5.07;;
21941;SDS011;11135;54.192;15.670;2022-10-31T17:07:42;18.45;;;6.88;;
21941;SDS011;11135;54.192;15.670;2022-10-31T17:10:53;23.60;;;8.93;;
21941;SDS011;11135;54.192;15.670;2022-10-31T17:14:05;22.80;;;9.23;;
21941;SDS011;11135;54.192;15.670;2022-10-31T17:17:11;19.88;;;8.77;;
21941;SDS011;11135;54.192;15.670;2022-10-31T17:20:18;17.77;;;7.75;;
21941;SDS011;11135;54.192;15.670;2022-10-31T17:23:28;24.38;;;8.40;;
21941;SDS011;11135;54.192;15.670;2022-10-31T17:26:34;22.55;;;9.35;;
21941;SDS011;11135;54.192;15.670;2022-10-31T17:29:42;17.33;;;7.97;;
21941;SDS011;11135;54.192;15.670;2022-10-31T17:32:48;19.85;;;8.77;;
21941;SDS011;11135;54.192;15.670;2022-10-31T17:35:53;18.67;;;9.05;;
21941;SDS011;11135;54.192;15.670;2022-10-31T17:38:59;23.38;;;8.98;;
21941;SDS011;11135;54.192;15.670;2022-10-31T17:42:06;22.27;;;9.40;;
21941;SDS011;11135;54.192;15.670;2022-10-31T17:45:17;16.38;;;8.88;;
21941;SDS011;11135;54.192;15.670;2022-10-31T17:48:25;20.25;;;9.45;;
21941;SDS011;11135;54.192;15.670;2022-10-31T17:51:34;18.00;;;8.32;;
21941;SDS011;11135;54.192;15.670;2022-10-31T17:54:45;15.23;;;7.22;;
21941;SDS011;11135;54.192;15.670;2022-10-31T17:57:54;13.15;;;6.45;;
21941;SDS011;11135;54.192;15.670;2022-10-31T18:01:09;14.15;;;6.72;;
21941;SDS011;11135;54.192;15.670;2022-10-31T18:04:15;16.80;;;7.30;;
21941;SDS011;11135;54.192;15.670;2022-10-31T18:07:25;15.07;;;7.97;;
21941;SDS011;11135;54.192;15.670;2022-10-31T18:10:32;15.85;;;8.10;;
21941;SDS011;11135;54.192;15.670;2022-10-31T18:13:54;13.00;;;7.53;;
21941;SDS011;11135;54.192;15.670;2022-10-31T18:17:06;16.40;;;7.90;;
21941;SDS011;11135;54.192;15.670;2022-10-31T18:20:12;19.75;;;8.48;;
21941;SDS011;11135;54.192;15.670;2022-10-31T18:23:17;16.10;;;7.63;;
21941;SDS011;11135;54.192;15.670;2022-10-31T18:26:26;14.45;;;7.80;;
21941;SDS011;11135;54.192;15.670;2022-10-31T18:29:34;12.50;;;7.38;;
21941;SDS011;11135;54.192;15.670;2022-10-31T18:32:42;17.38;;;8.50;;
21941;SDS011;11135;54.192;15.670;2022-10-31T18:35:51;13.88;;;7.25;;
21941;SDS011;11135;54.192;15.670;2022-10-31T18:39:01;20.25;;;7.95;;
21941;SDS011;11135;54.192;15.670;2022-10-31T18:42:08;17.20;;;7.68;;
21941;SDS011;11135;54.192;15.670;2022-10-31T18:45:21;19.60;;;8.05;;
21941;SDS011;11135;54.192;15.670;2022-10-31T18:48:51;18.23;;;8.80;;
21941;SDS011;11135;54.192;15.670;2022-10-31T18:51:58;14.40;;;7.20;;
21941;SDS011;11135;54.192;15.670;2022-10-31T18:55:04;19.05;;;8.50;;
21941;SDS011;11135;54.192;15.670;2022-10-31T18:58:10;17.17;;;8.73;;
21941;SDS011;11135;54.192;15.670;2022-10-31T19:01:18;25.48;;;10.43;;
21941;SDS011;11135;54.192;15.670;2022-10-31T19:04:27;24.10;;;9.45;;
21941;SDS011;11135;54.192;15.670;2022-10-31T19:07:33;20.52;;;9.25;;
21941;SDS011;11135;54.192;15.670;2022-10-31T19:10:38;26.58;;;10.07;;